createdAt,value
2023-05-06T00:02:16.004Z,79.07
2023-05-06T00:04:43.293Z,79.22
2023-05-06T00:07:10.216Z,79.31
2023-05-06T00:09:36.969Z,79.03
2023-05-06T00:12:05.511Z,78.40
2023-05-06T00:14:32.397Z,78.18
2023-05-06T00:16:59.394Z,78.37
2023-05-06T00:19:26.435Z,79.17
2023-05-06T00:21:53.274Z,79.68
2023-05-06T00:24:19.994Z,80.95
2023-05-06T00:26:46.737Z,82.21
2023-05-06T00:29:13.770Z,82.29
2023-05-06T00:31:41.193Z,82.63
2023-05-06T00:34:08.190Z,82.44
2023-05-06T00:36:35.039Z,82.51
2023-05-06T00:39:01.839Z,81.97
2023-05-06T00:41:32.970Z,81.90
2023-05-06T00:44:00.219Z,81.61
2023-05-06T00:46:27.600Z,80.81
2023-05-06T00:48:55.252Z,81.05
2023-05-06T00:51:22.505Z,80.55
2023-05-06T00:53:50.000Z,80.20
2023-05-06T00:56:20.496Z,80.40
2023-05-06T00:58:48.200Z,80.04
2023-05-06T01:01:15.153Z,80.30
2023-05-06T01:03:42.176Z,80.06
2023-05-06T01:06:30.308Z,80.38
2023-05-06T01:09:20.930Z,80.18
2023-05-06T01:12:06.027Z,79.91
2023-05-06T01:14:48.713Z,79.77
2023-05-06T01:17:18.753Z,79.90
2023-05-06T01:19:53.518Z,80.18
2023-05-06T01:22:21.113Z,80.09
2023-05-06T01:24:47.810Z,80.40
2023-05-06T01:27:16.786Z,80.07
2023-05-06T01:29:45.752Z,79.96
2023-05-06T01:32:19.189Z,80.13
2023-05-06T01:35:03.757Z,80.35
2023-05-06T01:37:40.650Z,80.89
2023-05-06T01:40:08.246Z,81.17
2023-05-06T01:42:37.579Z,81.65
2023-05-06T01:45:06.111Z,81.40
2023-05-06T01:47:33.860Z,80.80
2023-05-06T01:50:02.081Z,80.96
2023-05-06T01:52:28.887Z,81.14
2023-05-06T01:54:55.617Z,80.71
2023-05-06T01:57:22.291Z,80.95
2023-05-06T01:59:49.090Z,80.98
2023-05-06T02:02:15.771Z,80.76
2023-05-06T02:04:42.548Z,80.44
2023-05-06T02:07:09.659Z,81.32
2023-05-06T02:09:36.461Z,80.98
2023-05-06T02:12:05.184Z,81.04
2023-05-06T02:14:32.101Z,81.07
2023-05-06T02:17:06.586Z,81.91
2023-05-06T02:19:34.337Z,83.01
2023-05-06T02:22:00.998Z,84.08
2023-05-06T02:24:27.882Z,84.98
2023-05-06T02:26:54.641Z,85.94
2023-05-06T02:29:21.482Z,85.97
2023-05-06T02:31:48.272Z,86.13
2023-05-06T02:34:16.871Z,86.08
2023-05-06T02:36:43.689Z,85.39
2023-05-06T02:39:10.570Z,85.51
2023-05-06T02:41:37.568Z,85.82
2023-05-06T02:44:04.672Z,85.71
2023-05-06T02:46:31.614Z,85.73
2023-05-06T02:48:58.485Z,85.75
2023-05-06T02:51:25.296Z,85.10
2023-05-06T02:53:52.150Z,85.04
2023-05-06T02:56:19.011Z,84.97
2023-05-06T02:58:45.926Z,85.18
2023-05-06T03:01:12.733Z,85.60
2023-05-06T03:03:39.635Z,85.34
2023-05-06T03:06:06.502Z,85.28
2023-05-06T03:08:33.651Z,85.06
2023-05-06T03:11:01.551Z,84.82
2023-05-06T03:13:28.520Z,84.91
2023-05-06T03:15:55.567Z,84.41
2023-05-06T03:18:23.571Z,84.04
2023-05-06T03:20:51.238Z,84.10
2023-05-06T03:23:18.651Z,84.10
2023-05-06T03:25:46.323Z,83.59
2023-05-06T03:28:13.840Z,83.63
2023-05-06T03:30:42.661Z,83.83
2023-05-06T03:33:09.578Z,84.06
2023-05-06T03:35:36.503Z,84.31
2023-05-06T03:38:03.796Z,84.46
2023-05-06T03:40:38.269Z,84.42
2023-05-06T03:43:05.577Z,84.45
2023-05-06T03:45:33.032Z,84.51
2023-05-06T03:48:05.114Z,84.40
2023-05-06T03:50:34.647Z,84.99
2023-05-06T03:53:02.614Z,85.06
2023-05-06T03:55:32.448Z,84.94
2023-05-06T03:58:02.940Z,85.13
2023-05-06T04:00:29.832Z,84.66
2023-05-06T04:02:56.764Z,84.79
2023-05-06T04:05:30.566Z,84.84
2023-05-06T04:07:57.944Z,84.84
2023-05-06T04:10:24.723Z,84.96
2023-05-06T04:12:54.347Z,84.64
2023-05-06T04:15:26.906Z,84.70
2023-05-06T04:17:54.142Z,84.87
2023-05-06T04:20:21.566Z,85.21
2023-05-06T04:22:48.699Z,85.07
2023-05-06T04:25:18.408Z,84.86
2023-05-06T04:27:46.594Z,84.47
2023-05-06T04:30:13.685Z,85.67
2023-05-06T04:32:40.711Z,85.48
2023-05-06T04:35:08.348Z,85.75
2023-05-06T04:37:36.942Z,85.87
2023-05-06T04:40:12.305Z,85.56
2023-05-06T04:42:40.680Z,85.42
2023-05-06T04:45:12.985Z,85.14
2023-05-06T04:47:44.014Z,85.31
2023-05-06T04:50:11.749Z,85.24
2023-05-06T04:52:38.515Z,85.28
2023-05-06T04:55:06.307Z,84.83
2023-05-06T04:57:35.205Z,85.42
2023-05-06T05:00:03.589Z,85.29
2023-05-06T05:02:30.433Z,85.22
2023-05-06T05:04:57.495Z,85.13
2023-05-06T05:07:24.932Z,84.64
2023-05-06T05:09:52.067Z,84.82
2023-05-06T05:12:18.850Z,84.44
2023-05-06T05:14:48.605Z,85.25
2023-05-06T05:17:15.486Z,84.02
2023-05-06T05:19:42.554Z,83.42
2023-05-06T05:22:10.270Z,83.43
2023-05-06T05:24:37.258Z,83.76
2023-05-06T05:27:04.105Z,84.30
2023-05-06T05:29:31.080Z,84.17
2023-05-06T05:32:00.103Z,84.39
2023-05-06T05:34:26.924Z,85.83
2023-05-06T05:36:54.785Z,85.60
2023-05-06T05:39:22.063Z,85.44
2023-05-06T05:41:49.086Z,85.33
2023-05-06T05:44:19.180Z,85.59
2023-05-06T05:46:46.302Z,85.60
2023-05-06T05:49:16.332Z,85.50
2023-05-06T05:51:43.642Z,85.59
2023-05-06T05:54:14.381Z,85.69
2023-05-06T05:56:42.341Z,84.14
2023-05-06T05:59:09.101Z,84.18
2023-05-06T06:01:36.084Z,83.95
2023-05-06T06:04:03.890Z,83.68
2023-05-06T06:06:31.564Z,83.86
2023-05-06T06:08:58.988Z,83.68
2023-05-06T06:11:28.827Z,83.62
2023-05-06T06:13:55.751Z,82.97
2023-05-06T06:16:22.816Z,83.88
2023-05-06T06:18:50.073Z,83.22
2023-05-06T06:21:17.945Z,82.94
2023-05-06T06:23:45.132Z,83.22
2023-05-06T06:26:12.419Z,83.48
2023-05-06T06:28:39.818Z,83.56
2023-05-06T06:31:06.522Z,83.02
2023-05-06T06:33:33.325Z,82.81
2023-05-06T06:36:00.055Z,82.89
2023-05-06T06:38:26.961Z,83.38
2023-05-06T06:40:54.057Z,83.64
2023-05-06T06:43:20.934Z,83.73
2023-05-06T06:45:56.575Z,83.44
2023-05-06T06:48:23.613Z,82.74
2023-05-06T06:50:50.605Z,82.46
2023-05-06T06:53:17.654Z,82.44
2023-05-06T06:55:47.262Z,82.00
2023-05-06T06:58:14.061Z,82.03
2023-05-06T07:00:40.777Z,81.72
2023-05-06T07:03:07.702Z,81.98
2023-05-06T07:05:34.514Z,81.79
2023-05-06T07:08:01.276Z,82.23
2023-05-06T07:10:28.059Z,82.35
2023-05-06T07:12:54.976Z,82.20
2023-05-06T07:15:21.897Z,82.29
2023-05-06T07:17:48.744Z,81.57
2023-05-06T07:20:16.337Z,80.80
2023-05-06T07:22:43.834Z,80.16
2023-05-06T07:25:10.813Z,80.13
2023-05-06T07:27:37.964Z,79.20
2023-05-06T07:30:05.674Z,78.41
2023-05-06T07:32:32.516Z,78.67
2023-05-06T07:34:59.839Z,78.79
2023-05-06T07:37:26.684Z,78.27
2023-05-06T07:39:53.411Z,78.63
2023-05-06T07:42:20.182Z,76.11
2023-05-06T07:44:46.967Z,76.45
2023-05-06T07:47:26.116Z,76.75
2023-05-06T07:49:53.027Z,76.29
2023-05-06T07:52:19.727Z,75.32
2023-05-06T07:54:46.620Z,75.87
2023-05-06T07:57:14.200Z,74.97
2023-05-06T07:59:40.987Z,76.11
2023-05-06T08:02:07.960Z,78.31
2023-05-06T08:04:34.893Z,77.15
2023-05-06T08:07:01.870Z,78.41
2023-05-06T08:09:28.685Z,77.70
2023-05-06T08:11:55.629Z,77.85
2023-05-06T08:14:22.505Z,77.92
2023-05-06T08:16:49.408Z,78.07
2023-05-06T08:19:16.215Z,78.13
2023-05-06T08:21:42.956Z,77.12
2023-05-06T08:24:11.160Z,78.08
2023-05-06T08:26:37.887Z,77.08
2023-05-06T08:29:06.069Z,76.46
2023-05-06T08:31:32.935Z,76.00
2023-05-06T08:33:59.805Z,76.66
2023-05-06T08:36:26.654Z,77.67
2023-05-06T08:38:53.475Z,76.70
2023-05-06T08:41:22.155Z,76.55
2023-05-06T08:43:50.630Z,76.44
2023-05-06T08:46:18.001Z,75.84
2023-05-06T08:48:45.495Z,76.24
2023-05-06T08:51:17.828Z,77.12
2023-05-06T08:53:48.682Z,76.53
2023-05-06T08:56:16.621Z,76.00
2023-05-06T08:58:48.613Z,76.55
2023-05-06T09:01:16.198Z,75.96
2023-05-06T09:03:44.497Z,76.03
2023-05-06T09:06:11.377Z,76.90
2023-05-06T09:08:38.079Z,76.36
2023-05-06T09:11:21.990Z,77.63
2023-05-06T09:13:49.772Z,79.37
2023-05-06T09:16:30.200Z,77.46
2023-05-06T09:18:57.397Z,76.04
2023-05-06T09:21:32.600Z,75.68
2023-05-06T09:24:00.942Z,75.79
2023-05-06T09:26:29.633Z,76.51
2023-05-06T09:28:57.976Z,75.53
2023-05-06T09:31:26.553Z,75.66
2023-05-06T09:33:54.333Z,76.01
2023-05-06T09:36:21.886Z,77.82
2023-05-06T09:38:48.758Z,76.00
2023-05-06T09:41:16.746Z,75.75
2023-05-06T09:43:44.941Z,74.13
2023-05-06T09:46:16.092Z,75.43
2023-05-06T09:48:43.714Z,77.11
2023-05-06T09:51:11.074Z,74.50
2023-05-06T09:53:38.324Z,75.87
2023-05-06T09:56:06.414Z,75.03
2023-05-06T09:58:37.295Z,74.10
2023-05-06T10:01:06.000Z,74.68
2023-05-06T10:03:33.983Z,73.98
2023-05-06T10:06:02.517Z,73.35
2023-05-06T10:08:29.669Z,72.53
2023-05-06T10:10:57.059Z,73.69
2023-05-06T10:13:27.087Z,74.68
2023-05-06T10:15:54.286Z,74.54
2023-05-06T10:18:22.178Z,74.74
2023-05-06T10:20:49.643Z,72.17
2023-05-06T10:23:26.017Z,70.80
2023-05-06T10:26:07.770Z,73.49
2023-05-06T10:28:42.097Z,72.56
2023-05-06T10:31:13.209Z,73.12
2023-05-06T10:33:47.441Z,72.18
2023-05-06T10:36:22.936Z,70.64
2023-05-06T10:38:56.360Z,71.24
2023-05-06T10:41:27.745Z,69.91
2023-05-06T10:43:59.401Z,71.29
2023-05-06T10:46:30.799Z,72.06
2023-05-06T10:49:08.464Z,70.77
2023-05-06T10:51:40.390Z,69.14
2023-05-06T10:54:11.161Z,69.07
2023-05-06T10:56:59.303Z,69.50
2023-05-06T10:59:29.778Z,70.19
2023-05-06T11:02:08.524Z,70.12
2023-05-06T11:04:35.665Z,69.19
2023-05-06T11:07:13.798Z,69.77
2023-05-06T11:10:06.932Z,67.86
2023-05-06T11:12:53.781Z,66.37
2023-05-06T11:15:40.771Z,69.82
2023-05-06T11:18:29.413Z,66.92
2023-05-06T11:21:03.052Z,68.01
2023-05-06T11:23:42.835Z,67.79
2023-05-06T11:26:11.426Z,66.72
2023-05-06T11:28:39.340Z,68.54
2023-05-06T11:31:07.104Z,68.97
2023-05-06T11:33:37.748Z,67.40
2023-05-06T11:36:06.596Z,68.12
2023-05-06T11:38:47.071Z,69.43
2023-05-06T11:41:15.503Z,70.09
2023-05-06T11:43:52.376Z,64.78
2023-05-06T11:46:20.612Z,65.85
2023-05-06T11:48:47.854Z,65.21
2023-05-06T11:51:16.198Z,65.96
2023-05-06T11:53:43.084Z,66.45
2023-05-06T11:56:09.908Z,66.23
2023-05-06T11:58:36.758Z,65.91
2023-05-06T12:01:07.263Z,65.65
2023-05-06T12:03:34.713Z,63.62
2023-05-06T12:06:01.905Z,63.71
2023-05-06T12:08:32.174Z,62.75
2023-05-06T12:11:02.303Z,64.07
2023-05-06T12:13:30.048Z,62.81
2023-05-06T12:15:59.335Z,62.93
2023-05-06T12:18:30.164Z,64.30
2023-05-06T12:21:02.290Z,63.74
2023-05-06T12:23:29.304Z,64.78
2023-05-06T12:26:04.028Z,64.39
2023-05-06T12:28:32.733Z,63.64
2023-05-06T12:30:59.970Z,65.24
2023-05-06T12:33:26.857Z,61.33
2023-05-06T12:35:57.139Z,62.06
2023-05-06T12:38:23.985Z,63.71
2023-05-06T12:40:55.276Z,64.09
2023-05-06T12:43:31.530Z,62.94
2023-05-06T12:46:06.553Z,61.65
2023-05-06T12:48:33.868Z,61.79
2023-05-06T12:51:00.569Z,60.94
2023-05-06T12:53:35.280Z,61.49
2023-05-06T12:56:02.065Z,59.76
2023-05-06T12:58:28.899Z,59.16
2023-05-06T13:00:55.843Z,62.84
2023-05-06T13:03:22.727Z,62.32
2023-05-06T13:05:52.089Z,59.90
2023-05-06T13:08:19.258Z,60.09
2023-05-06T13:10:46.056Z,60.37
2023-05-06T13:13:12.835Z,60.80
2023-05-06T13:15:41.297Z,64.00
2023-05-06T13:18:09.269Z,61.86
2023-05-06T13:20:36.702Z,64.36
2023-05-06T13:23:03.953Z,65.22
2023-05-06T13:25:30.823Z,61.93
2023-05-06T13:27:57.490Z,63.83
2023-05-06T13:30:24.415Z,64.48
2023-05-06T13:32:51.280Z,62.56
2023-05-06T13:35:18.204Z,64.69
2023-05-06T13:37:44.905Z,63.04
2023-05-06T13:40:12.548Z,60.90
2023-05-06T13:42:40.667Z,64.81
2023-05-06T13:45:08.482Z,64.69
2023-05-06T13:47:35.407Z,62.87
2023-05-06T13:50:03.856Z,60.52
2023-05-06T13:52:30.641Z,63.66
2023-05-06T13:54:57.789Z,63.66
2023-05-06T13:57:26.040Z,63.42
2023-05-06T13:59:53.001Z,61.23
2023-05-06T14:02:20.033Z,62.36
2023-05-06T14:04:46.863Z,61.53
2023-05-06T14:07:13.705Z,60.09
2023-05-06T14:09:40.422Z,60.85
2023-05-06T14:12:07.254Z,63.54
2023-05-06T14:14:34.013Z,62.49
2023-05-06T14:17:00.814Z,61.83
2023-05-06T14:19:27.881Z,63.36
2023-05-06T14:21:55.843Z,62.03
2023-05-06T14:24:22.562Z,62.00
2023-05-06T14:26:49.276Z,61.53
2023-05-06T14:29:16.110Z,63.93
2023-05-06T14:31:42.892Z,63.60
2023-05-06T14:34:09.783Z,61.21
2023-05-06T14:36:36.608Z,62.06
2023-05-06T14:39:03.469Z,63.60
2023-05-06T14:41:31.071Z,61.36
2023-05-06T14:43:58.001Z,60.58
2023-05-06T14:46:27.749Z,61.43
2023-05-06T14:48:56.318Z,59.90
2023-05-06T14:51:23.357Z,61.05
2023-05-06T14:53:50.127Z,60.90
2023-05-06T14:56:17.090Z,59.49
2023-05-06T14:58:44.042Z,60.58
2023-05-06T15:01:10.961Z,58.98
2023-05-06T15:03:37.778Z,58.78
2023-05-06T15:06:05.480Z,56.80
2023-05-06T15:08:32.448Z,57.74
2023-05-06T15:11:00.187Z,59.19
2023-05-06T15:13:28.026Z,59.03
2023-05-06T15:15:55.289Z,60.15
2023-05-06T15:18:22.320Z,59.69
2023-05-06T15:20:49.043Z,60.75
2023-05-06T15:23:15.761Z,60.82
2023-05-06T15:25:42.668Z,60.13
2023-05-06T15:28:09.464Z,59.83
2023-05-06T15:30:37.832Z,58.57
2023-05-06T15:33:06.042Z,58.98
2023-05-06T15:35:32.859Z,59.82
2023-05-06T15:37:59.684Z,58.83
2023-05-06T15:40:27.266Z,60.70
2023-05-06T15:42:54.385Z,59.64
2023-05-06T15:45:22.174Z,61.38
2023-05-06T15:47:49.184Z,57.89
2023-05-06T15:50:28.927Z,58.82
2023-05-06T15:52:59.141Z,60.25
2023-05-06T15:55:26.686Z,59.60
2023-05-06T15:57:59.090Z,58.57
2023-05-06T16:00:28.085Z,57.77
2023-05-06T16:02:54.972Z,59.79
2023-05-06T16:05:21.969Z,60.11
2023-05-06T16:07:48.744Z,62.22
2023-05-06T16:10:15.767Z,59.89
2023-05-06T16:12:42.543Z,61.76
2023-05-06T16:15:09.990Z,62.11
2023-05-06T16:17:37.779Z,62.49
2023-05-06T16:20:05.522Z,62.46
2023-05-06T16:22:32.344Z,64.38
2023-05-06T16:24:59.128Z,64.44
2023-05-06T16:27:28.294Z,63.90
2023-05-06T16:29:55.652Z,64.29
2023-05-06T16:32:23.314Z,63.05
2023-05-06T16:34:50.471Z,62.01
2023-05-06T16:37:17.284Z,62.62
2023-05-06T16:39:44.072Z,63.10
2023-05-06T16:42:10.800Z,63.62
2023-05-06T16:44:37.776Z,63.51
2023-05-06T16:47:04.687Z,64.10
2023-05-06T16:49:33.450Z,64.88
2023-05-06T16:52:00.827Z,63.69
2023-05-06T16:54:27.638Z,64.98
2023-05-06T16:56:54.853Z,64.49
2023-05-06T16:59:22.379Z,64.20
2023-05-06T17:01:50.101Z,64.01
2023-05-06T17:04:17.055Z,64.11
2023-05-06T17:06:44.070Z,63.27
2023-05-06T17:09:11.073Z,63.52
2023-05-06T17:11:37.857Z,64.74
2023-05-06T17:14:04.942Z,64.31
2023-05-06T17:16:32.131Z,64.57
2023-05-06T17:18:59.081Z,64.43
2023-05-06T17:21:26.966Z,64.97
2023-05-06T17:23:54.582Z,64.97
2023-05-06T17:26:21.958Z,65.58
2023-05-06T17:28:49.009Z,66.00
2023-05-06T17:31:16.147Z,66.73
2023-05-06T17:33:47.095Z,67.65
2023-05-06T17:36:14.306Z,68.06
2023-05-06T17:38:41.078Z,68.77
2023-05-06T17:41:07.975Z,69.61
2023-05-06T17:43:34.961Z,69.67
2023-05-06T17:46:01.885Z,70.64
2023-05-06T17:48:28.817Z,70.52
2023-05-06T17:51:02.036Z,70.75
2023-05-06T17:53:29.906Z,71.04
2023-05-06T17:55:57.084Z,71.70
2023-05-06T17:58:23.998Z,72.13
2023-05-06T18:00:50.801Z,71.98
2023-05-06T18:03:17.688Z,72.06
2023-05-06T18:05:44.551Z,72.62
2023-05-06T18:08:11.275Z,72.91
2023-05-06T18:10:38.030Z,72.79
2023-05-06T18:13:04.926Z,73.39
2023-05-06T18:15:31.686Z,73.75
2023-05-06T18:17:58.591Z,73.77
2023-05-06T18:20:25.502Z,74.19
2023-05-06T18:22:52.314Z,74.74
2023-05-06T18:25:19.202Z,75.26
2023-05-06T18:27:48.354Z,75.03
2023-05-06T18:30:16.039Z,75.75
2023-05-06T18:32:42.788Z,75.80
2023-05-06T18:35:11.087Z,76.17
2023-05-06T18:37:38.658Z,76.18
2023-05-06T18:40:06.243Z,76.47
2023-05-06T18:42:34.016Z,77.11
2023-05-06T18:45:04.998Z,76.52
2023-05-06T18:47:35.278Z,76.71
2023-05-06T18:50:02.175Z,76.79
2023-05-06T18:52:29.279Z,77.52
2023-05-06T18:54:56.293Z,77.52
2023-05-06T18:57:24.165Z,77.59
2023-05-06T18:59:51.163Z,77.41
2023-05-06T19:02:18.049Z,77.80
2023-05-06T19:04:47.718Z,77.79
2023-05-06T19:07:16.150Z,77.57
2023-05-06T19:09:43.201Z,76.96
2023-05-06T19:12:10.067Z,77.00
2023-05-06T19:14:37.313Z,76.94
2023-05-06T19:17:05.055Z,77.12
2023-05-06T19:19:32.152Z,77.13
2023-05-06T19:22:01.869Z,77.26
2023-05-06T19:24:30.559Z,77.29
2023-05-06T19:26:57.433Z,77.90
2023-05-06T19:29:24.449Z,77.80
2023-05-06T19:31:54.062Z,77.80
2023-05-06T19:34:21.055Z,77.77
2023-05-06T19:36:47.984Z,77.02
2023-05-06T19:39:16.454Z,77.26
2023-05-06T19:41:43.605Z,77.68
2023-05-06T19:44:10.447Z,77.16
2023-05-06T19:46:37.473Z,77.23
2023-05-06T19:49:05.037Z,76.50
2023-05-06T19:51:32.445Z,76.52
2023-05-06T19:53:59.251Z,76.41
2023-05-06T19:56:28.588Z,76.00
2023-05-06T19:58:56.795Z,76.23
2023-05-06T20:01:24.394Z,76.44
2023-05-06T20:03:51.502Z,76.76
2023-05-06T20:06:18.548Z,76.75
2023-05-06T20:08:46.007Z,76.59
2023-05-06T20:11:13.067Z,76.18
2023-05-06T20:13:42.183Z,75.90
2023-05-06T20:16:10.002Z,75.57
2023-05-06T20:18:37.344Z,75.08
2023-05-06T20:21:04.227Z,75.30
2023-05-06T20:23:31.489Z,75.06
2023-05-06T20:25:58.547Z,74.71
2023-05-06T20:28:26.434Z,74.60
2023-05-06T20:30:55.837Z,74.89
2023-05-06T20:33:22.955Z,74.55
2023-05-06T20:35:51.044Z,75.63
2023-05-06T20:38:19.479Z,75.15
2023-05-06T20:40:47.971Z,75.06
2023-05-06T20:43:14.744Z,75.03
2023-05-06T20:45:41.703Z,75.23
2023-05-06T20:48:08.689Z,74.92
2023-05-06T20:50:35.587Z,74.77
2023-05-06T20:53:02.439Z,74.30
2023-05-06T20:55:29.525Z,73.59
2023-05-06T20:57:58.789Z,74.42
2023-05-06T21:00:26.087Z,73.52
2023-05-06T21:02:53.217Z,73.24
2023-05-06T21:05:20.455Z,73.96
2023-05-06T21:07:47.497Z,74.14
2023-05-06T21:10:14.676Z,74.47
2023-05-06T21:12:47.276Z,74.27
2023-05-06T21:15:15.135Z,71.70
2023-05-06T21:17:42.576Z,73.08
2023-05-06T21:20:10.222Z,73.21
2023-05-06T21:22:37.222Z,72.85
2023-05-06T21:25:05.542Z,73.01
2023-05-06T21:27:32.454Z,73.30
2023-05-06T21:29:59.295Z,72.55
2023-05-06T21:32:26.516Z,73.01
2023-05-06T21:34:53.790Z,74.33
2023-05-06T21:37:20.472Z,74.70
2023-05-06T21:39:47.475Z,74.79
2023-05-06T21:42:14.267Z,74.72
2023-05-06T21:44:41.637Z,74.13
2023-05-06T21:47:08.464Z,74.25
2023-05-06T21:49:35.527Z,74.22
2023-05-06T21:52:02.288Z,73.58
2023-05-06T21:54:31.830Z,73.63
2023-05-06T21:56:58.697Z,73.40
2023-05-06T21:59:25.718Z,73.61
2023-05-06T22:01:53.070Z,73.12
2023-05-06T22:16:52.111Z,73.89
2023-05-06T22:19:46.520Z,74.33
2023-05-06T22:25:20.636Z,74.13
2023-05-06T22:31:27.355Z,75.47
2023-05-06T22:34:25.309Z,75.28
2023-05-06T22:37:54.748Z,76.16
